sensor_id;sensor_type;location;lat;lon;timestamp;temperature;humidity
21193;DHT22;10754;51.106;7.164;2023-03-01T00:02:11;5.50;1.00
21193;DHT22;10754;51.106;7.164;2023-03-01T00:04:36;5.50;1.00
21193;DHT22;10754;51.106;7.164;2023-03-01T00:07:02;5.50;1.00
21193;DHT22;10754;51.106;7.164;2023-03-01T00:09:27;5.50;1.00
21193;DHT22;10754;51.106;7.164;2023-03-01T00:11:53;5.40;1.00
21193;DHT22;10754;51.106;7.164;2023-03-01T00:14:18;5.40;1.00
21193;DHT22;10754;51.106;7.164;2023-03-01T00:16:45;5.40;1.00
21193;DHT22;10754;51.106;7.164;2023-03-01T00:19:17;5.30;1.00
21193;DHT22;10754;51.106;7.164;2023-03-01T00:21:43;5.30;1.00
21193;DHT22;10754;51.106;7.164;2023-03-01T00:24:08;5.30;1.00
21193;DHT22;10754;51.106;7.164;2023-03-01T00:26:34;5.30;1.00
21193;DHT22;10754;51.106;7.164;2023-03-01T00:29:00;5.30;1.00
21193;DHT22;10754;51.106;7.164;2023-03-01T00:31:28;5.30;1.00
21193;DHT22;10754;51.106;7.164;2023-03-01T00:34:02;5.40;1.00
21193;DHT22;10754;51.106;7.164;2023-03-01T00:36:31;5.30;1.00
21193;DHT22;10754;51.106;7.164;2023-03-01T00:38:57;5.30;1.00
21193;DHT22;10754;51.106;7.164;2023-03-01T00:41:22;5.30;1.00
21193;DHT22;10754;51.106;7.164;2023-03-01T00:43:49;5.30;1.00
21193;DHT22;10754;51.106;7.164;2023-03-01T00:46:17;5.40;1.00
21193;DHT22;10754;51.106;7.164;2023-03-01T00:48:44;5.40;1.00
21193;DHT22;10754;51.106;7.164;2023-03-01T00:51:15;5.30;1.00
21193;DHT22;10754;51.106;7.164;2023-03-01T00:53:41;5.30;1.00
21193;DHT22;10754;51.106;7.164;2023-03-01T00:56:08;5.30;1.00
21193;DHT22;10754;51.106;7.164;2023-03-01T00:58:35;5.30;1.00
21193;DHT22;10754;51.106;7.164;2023-03-01T01:01:00;5.30;1.00
21193;DHT22;10754;51.106;7.164;2023-03-01T01:03:26;5.30;1.00
21193;DHT22;10754;51.106;7.164;2023-03-01T01:05:53;5.30;1.00
21193;DHT22;10754;51.106;7.164;2023-03-01T01:08:19;5.30;1.00
21193;DHT22;10754;51.106;7.164;2023-03-01T01:10:46;5.30;1.00
21193;DHT22;10754;51.106;7.164;2023-03-01T01:13:12;5.30;1.00
21193;DHT22;10754;51.106;7.164;2023-03-01T01:15:38;5.30;1.00
21193;DHT22;10754;51.106;7.164;2023-03-01T01:18:04;5.20;1.00
21193;DHT22;10754;51.106;7.164;2023-03-01T01:20:30;5.20;1.00
21193;DHT22;10754;51.106;7.164;2023-03-01T01:22:55;5.30;1.00
21193;DHT22;10754;51.106;7.164;2023-03-01T01:25:21;5.20;1.00
21193;DHT22;10754;51.106;7.164;2023-03-01T01:27:46;5.20;1.00
21193;DHT22;10754;51.106;7.164;2023-03-01T01:30:12;5.20;1.00
21193;DHT22;10754;51.106;7.164;2023-03-01T01:32:38;5.20;1.00
21193;DHT22;10754;51.106;7.164;2023-03-01T01:35:04;5.10;1.00
21193;DHT22;10754;51.106;7.164;2023-03-01T01:37:29;5.10;1.00
21193;DHT22;10754;51.106;7.164;2023-03-01T01:40:00;5.10;1.00
21193;DHT22;10754;51.106;7.164;2023-03-01T01:42:26;5.10;1.00
21193;DHT22;10754;51.106;7.164;2023-03-01T01:47:55;5.10;1.00
21193;DHT22;10754;51.106;7.164;2023-03-01T01:50:22;5.10;1.00
21193;DHT22;10754;51.106;7.164;2023-03-01T01:52:50;5.00;1.00
21193;DHT22;10754;51.106;7.164;2023-03-01T01:55:21;5.10;1.00
21193;DHT22;10754;51.106;7.164;2023-03-01T01:57:52;5.00;1.00
21193;DHT22;10754;51.106;7.164;2023-03-01T02:00:21;5.00;1.00
21193;DHT22;10754;51.106;7.164;2023-03-01T02:02:51;4.90;1.00
21193;DHT22;10754;51.106;7.164;2023-03-01T02:08:16;4.90;1.00
21193;DHT22;10754;51.106;7.164;2023-03-01T02:10:45;4.80;1.00
21193;DHT22;10754;51.106;7.164;2023-03-01T02:13:10;4.80;1.00
21193;DHT22;10754;51.106;7.164;2023-03-01T02:15:38;4.70;1.00
21193;DHT22;10754;51.106;7.164;2023-03-01T02:18:05;4.70;1.00
21193;DHT22;10754;51.106;7.164;2023-03-01T02:23:02;4.60;1.00
21193;DHT22;10754;51.106;7.164;2023-03-01T02:28:32;4.60;1.00
21193;DHT22;10754;51.106;7.164;2023-03-01T02:30:58;4.60;1.00
21193;DHT22;10754;51.106;7.164;2023-03-01T02:33:44;4.60;1.00
21193;DHT22;10754;51.106;7.164;2023-03-01T02:36:18;4.60;1.00
21193;DHT22;10754;51.106;7.164;2023-03-01T02:38:44;4.60;1.00
21193;DHT22;10754;51.106;7.164;2023-03-01T02:41:13;4.60;1.00
21193;DHT22;10754;51.106;7.164;2023-03-01T02:43:40;4.60;1.00
21193;DHT22;10754;51.106;7.164;2023-03-01T02:46:16;4.70;1.00
21193;DHT22;10754;51.106;7.164;2023-03-01T02:48:44;4.70;1.00
21193;DHT22;10754;51.106;7.164;2023-03-01T02:51:23;4.70;1.00
21193;DHT22;10754;51.106;7.164;2023-03-01T02:56:46;4.70;1.00
21193;DHT22;10754;51.106;7.164;2023-03-01T02:59:14;4.70;1.00
21193;DHT22;10754;51.106;7.164;2023-03-01T03:01:40;4.70;1.00
21193;DHT22;10754;51.106;7.164;2023-03-01T03:04:10;4.70;1.00
21193;DHT22;10754;51.106;7.164;2023-03-01T03:06:37;4.80;1.00
21193;DHT22;10754;51.106;7.164;2023-03-01T03:09:04;4.70;1.00
21193;DHT22;10754;51.106;7.164;2023-03-01T03:11:29;4.70;1.00
21193;DHT22;10754;51.106;7.164;2023-03-01T03:13:55;4.70;1.00
21193;DHT22;10754;51.106;7.164;2023-03-01T03:16:21;4.80;1.00
21193;DHT22;10754;51.106;7.164;2023-03-01T03:18:47;4.80;1.00
21193;DHT22;10754;51.106;7.164;2023-03-01T03:21:14;4.80;1.00
21193;DHT22;10754;51.106;7.164;2023-03-01T03:23:39;4.70;1.00
21193;DHT22;10754;51.106;7.164;2023-03-01T03:26:05;4.70;1.00
21193;DHT22;10754;51.106;7.164;2023-03-01T03:28:32;4.70;1.00
21193;DHT22;10754;51.106;7.164;2023-03-01T03:30:58;4.70;1.00
21193;DHT22;10754;51.106;7.164;2023-03-01T03:33:26;4.70;1.00
21193;DHT22;10754;51.106;7.164;2023-03-01T03:35:51;4.70;1.00
21193;DHT22;10754;51.106;7.164;2023-03-01T03:38:18;4.70;1.00
21193;DHT22;10754;51.106;7.164;2023-03-01T03:40:52;4.60;1.00
21193;DHT22;10754;51.106;7.164;2023-03-01T03:43:26;4.60;1.00
21193;DHT22;10754;51.106;7.164;2023-03-01T03:45:51;4.60;1.00
21193;DHT22;10754;51.106;7.164;2023-03-01T03:48:18;4.60;1.00
21193;DHT22;10754;51.106;7.164;2023-03-01T03:50:51;4.60;1.00
21193;DHT22;10754;51.106;7.164;2023-03-01T03:53:18;4.60;1.00
21193;DHT22;10754;51.106;7.164;2023-03-01T03:55:44;4.50;1.00
21193;DHT22;10754;51.106;7.164;2023-03-01T03:58:10;4.50;1.00
21193;DHT22;10754;51.106;7.164;2023-03-01T04:00:44;4.50;1.00
21193;DHT22;10754;51.106;7.164;2023-03-01T04:03:11;4.50;1.00
21193;DHT22;10754;51.106;7.164;2023-03-01T04:05:38;4.50;1.00
21193;DHT22;10754;51.106;7.164;2023-03-01T04:08:05;4.50;1.00
21193;DHT22;10754;51.106;7.164;2023-03-01T04:10:37;4.50;1.00
21193;DHT22;10754;51.106;7.164;2023-03-01T04:13:04;4.50;1.00
21193;DHT22;10754;51.106;7.164;2023-03-01T04:15:30;4.50;1.00
21193;DHT22;10754;51.106;7.164;2023-03-01T04:17:56;4.50;1.00
21193;DHT22;10754;51.106;7.164;2023-03-01T04:20:25;4.50;1.00
21193;DHT22;10754;51.106;7.164;2023-03-01T04:22:52;4.50;1.00
21193;DHT22;10754;51.106;7.164;2023-03-01T04:25:18;4.50;1.00
21193;DHT22;10754;51.106;7.164;2023-03-01T04:27:44;4.50;1.00
21193;DHT22;10754;51.106;7.164;2023-03-01T04:30:10;4.50;1.00
21193;DHT22;10754;51.106;7.164;2023-03-01T04:32:36;4.50;1.00
21193;DHT22;10754;51.106;7.164;2023-03-01T04:35:01;4.40;1.00
21193;DHT22;10754;51.106;7.164;2023-03-01T04:37:27;4.40;1.00
21193;DHT22;10754;51.106;7.164;2023-03-01T04:39:52;4.40;1.00
21193;DHT22;10754;51.106;7.164;2023-03-01T04:42:19;4.40;1.00
21193;DHT22;10754;51.106;7.164;2023-03-01T04:44:45;4.40;1.00
21193;DHT22;10754;51.106;7.164;2023-03-01T04:47:11;4.40;1.00
21193;DHT22;10754;51.106;7.164;2023-03-01T04:49:36;4.50;1.00
21193;DHT22;10754;51.106;7.164;2023-03-01T04:52:03;4.50;1.00
21193;DHT22;10754;51.106;7.164;2023-03-01T04:54:30;4.50;1.00
21193;DHT22;10754;51.106;7.164;2023-03-01T04:56:55;4.50;1.00
21193;DHT22;10754;51.106;7.164;2023-03-01T04:59:21;4.50;1.00
21193;DHT22;10754;51.106;7.164;2023-03-01T05:01:48;4.60;1.00
21193;DHT22;10754;51.106;7.164;2023-03-01T05:04:14;4.60;1.00
21193;DHT22;10754;51.106;7.164;2023-03-01T05:06:39;4.60;1.00
21193;DHT22;10754;51.106;7.164;2023-03-01T05:09:05;4.60;1.00
21193;DHT22;10754;51.106;7.164;2023-03-01T05:11:31;4.60;1.00
21193;DHT22;10754;51.106;7.164;2023-03-01T05:14:01;4.60;1.00
21193;DHT22;10754;51.106;7.164;2023-03-01T05:16:27;4.60;1.00
21193;DHT22;10754;51.106;7.164;2023-03-01T05:18:52;4.50;1.00
21193;DHT22;10754;51.106;7.164;2023-03-01T05:21:18;4.50;1.00
21193;DHT22;10754;51.106;7.164;2023-03-01T05:23:44;4.50;1.00
21193;DHT22;10754;51.106;7.164;2023-03-01T05:26:10;4.50;1.00
21193;DHT22;10754;51.106;7.164;2023-03-01T05:28:37;4.50;1.00
21193;DHT22;10754;51.106;7.164;2023-03-01T05:31:03;4.50;1.00
21193;DHT22;10754;51.106;7.164;2023-03-01T05:33:36;4.50;1.00
21193;DHT22;10754;51.106;7.164;2023-03-01T05:36:02;4.50;1.00
21193;DHT22;10754;51.106;7.164;2023-03-01T05:38:27;4.50;1.00
21193;DHT22;10754;51.106;7.164;2023-03-01T05:40:53;4.50;1.00
21193;DHT22;10754;51.106;7.164;2023-03-01T05:43:19;4.50;1.00
21193;DHT22;10754;51.106;7.164;2023-03-01T05:45:44;4.50;1.00
21193;DHT22;10754;51.106;7.164;2023-03-01T05:48:11;4.50;1.00
21193;DHT22;10754;51.106;7.164;2023-03-01T05:50:43;4.50;1.00
21193;DHT22;10754;51.106;7.164;2023-03-01T05:53:12;4.50;1.00
21193;DHT22;10754;51.106;7.164;2023-03-01T05:55:38;4.60;1.00
21193;DHT22;10754;51.106;7.164;2023-03-01T05:58:07;4.60;1.00
21193;DHT22;10754;51.106;7.164;2023-03-01T06:00:33;4.60;1.00
21193;DHT22;10754;51.106;7.164;2023-03-01T06:03:01;4.60;1.00
21193;DHT22;10754;51.106;7.164;2023-03-01T06:05:27;4.50;1.00
21193;DHT22;10754;51.106;7.164;2023-03-01T06:07:53;4.50;1.00
21193;DHT22;10754;51.106;7.164;2023-03-01T06:10:21;4.50;1.00
21193;DHT22;10754;51.106;7.164;2023-03-01T06:12:47;4.50;1.00
21193;DHT22;10754;51.106;7.164;2023-03-01T06:15:14;4.50;1.00
21193;DHT22;10754;51.106;7.164;2023-03-01T06:17:42;4.50;1.00
21193;DHT22;10754;51.106;7.164;2023-03-01T06:20:20;4.50;1.00
21193;DHT22;10754;51.106;7.164;2023-03-01T06:22:47;4.50;1.00
21193;DHT22;10754;51.106;7.164;2023-03-01T06:25:14;4.50;1.00
21193;DHT22;10754;51.106;7.164;2023-03-01T06:27:41;4.50;1.00
21193;DHT22;10754;51.106;7.164;2023-03-01T06:30:08;4.50;1.00
21193;DHT22;10754;51.106;7.164;2023-03-01T06:32:35;4.50;1.00
21193;DHT22;10754;51.106;7.164;2023-03-01T06:35:00;4.50;1.00
21193;DHT22;10754;51.106;7.164;2023-03-01T06:37:26;4.50;1.00
21193;DHT22;10754;51.106;7.164;2023-03-01T06:39:51;4.50;1.00
21193;DHT22;10754;51.106;7.164;2023-03-01T06:42:17;4.50;1.00
21193;DHT22;10754;51.106;7.164;2023-03-01T06:44:44;4.60;1.00
21193;DHT22;10754;51.106;7.164;2023-03-01T06:47:09;4.50;1.00
21193;DHT22;10754;51.106;7.164;2023-03-01T06:49:35;4.50;1.00
21193;DHT22;10754;51.106;7.164;2023-03-01T06:52:00;4.50;1.00
21193;DHT22;10754;51.106;7.164;2023-03-01T06:54:26;4.50;1.00
21193;DHT22;10754;51.106;7.164;2023-03-01T06:56:52;4.50;1.00
21193;DHT22;10754;51.106;7.164;2023-03-01T06:59:18;4.50;1.00
21193;DHT22;10754;51.106;7.164;2023-03-01T07:01:44;4.50;1.00
21193;DHT22;10754;51.106;7.164;2023-03-01T07:04:10;4.60;1.00
21193;DHT22;10754;51.106;7.164;2023-03-01T07:06:36;4.60;1.00
21193;DHT22;10754;51.106;7.164;2023-03-01T07:09:02;4.60;1.00
21193;DHT22;10754;51.106;7.164;2023-03-01T07:11:27;4.70;1.00
21193;DHT22;10754;51.106;7.164;2023-03-01T07:13:53;4.70;1.00
21193;DHT22;10754;51.106;7.164;2023-03-01T07:16:18;4.70;1.00
21193;DHT22;10754;51.106;7.164;2023-03-01T07:18:45;4.80;1.00
21193;DHT22;10754;51.106;7.164;2023-03-01T07:21:12;4.80;1.00
21193;DHT22;10754;51.106;7.164;2023-03-01T07:23:38;4.80;1.00
21193;DHT22;10754;51.106;7.164;2023-03-01T07:26:04;4.80;1.00
21193;DHT22;10754;51.106;7.164;2023-03-01T07:28:30;4.80;1.00
21193;DHT22;10754;51.106;7.164;2023-03-01T07:31:01;4.90;1.00
21193;DHT22;10754;51.106;7.164;2023-03-01T07:33:26;4.90;1.00
21193;DHT22;10754;51.106;7.164;2023-03-01T07:35:57;4.90;1.00
21193;DHT22;10754;51.106;7.164;2023-03-01T07:38:23;4.90;1.00
21193;DHT22;10754;51.106;7.164;2023-03-01T07:40:48;4.80;1.00
21193;DHT22;10754;51.106;7.164;2023-03-01T07:43:14;4.80;1.00
21193;DHT22;10754;51.106;7.164;2023-03-01T07:45:39;4.90;1.00
21193;DHT22;10754;51.106;7.164;2023-03-01T07:48:05;4.90;1.00
21193;DHT22;10754;51.106;7.164;2023-03-01T07:50:30;4.90;1.00
21193;DHT22;10754;51.106;7.164;2023-03-01T07:52:56;5.00;1.00
21193;DHT22;10754;51.106;7.164;2023-03-01T07:55:21;5.10;1.00
21193;DHT22;10754;51.106;7.164;2023-03-01T07:57:47;5.20;1.00
21193;DHT22;10754;51.106;7.164;2023-03-01T08:00:13;5.20;1.00
21193;DHT22;10754;51.106;7.164;2023-03-01T08:02:38;5.10;1.00
21193;DHT22;10754;51.106;7.164;2023-03-01T08:05:05;5.20;1.00
21193;DHT22;10754;51.106;7.164;2023-03-01T08:07:31;5.30;1.00
21193;DHT22;10754;51.106;7.164;2023-03-01T08:09:58;5.10;1.00
21193;DHT22;10754;51.106;7.164;2023-03-01T08:12:23;5.10;1.00
21193;DHT22;10754;51.106;7.164;2023-03-01T08:14:49;5.10;1.00
21193;DHT22;10754;51.106;7.164;2023-03-01T08:17:14;5.10;1.00
21193;DHT22;10754;51.106;7.164;2023-03-01T08:19:40;5.10;1.00
21193;DHT22;10754;51.106;7.164;2023-03-01T08:22:05;5.30;1.00
21193;DHT22;10754;51.106;7.164;2023-03-01T08:24:31;5.40;1.00
21193;DHT22;10754;51.106;7.164;2023-03-01T08:26:56;5.60;1.00
21193;DHT22;10754;51.106;7.164;2023-03-01T08:29:22;5.40;1.00
21193;DHT22;10754;51.106;7.164;2023-03-01T08:31:49;5.50;1.00
21193;DHT22;10754;51.106;7.164;2023-03-01T08:34:16;5.70;1.00
21193;DHT22;10754;51.106;7.164;2023-03-01T08:36:45;5.80;1.00
21193;DHT22;10754;51.106;7.164;2023-03-01T08:39:13;6.00;1.00
21193;DHT22;10754;51.106;7.164;2023-03-01T08:41:39;6.10;1.00
21193;DHT22;10754;51.106;7.164;2023-03-01T08:44:05;6.10;1.00
21193;DHT22;10754;51.106;7.164;2023-03-01T08:46:37;6.00;1.00
21193;DHT22;10754;51.106;7.164;2023-03-01T08:49:04;6.10;1.00
21193;DHT22;10754;51.106;7.164;2023-03-01T08:51:30;6.20;1.00
21193;DHT22;10754;51.106;7.164;2023-03-01T08:53:57;6.30;1.00
21193;DHT22;10754;51.106;7.164;2023-03-01T08:56:23;6.30;1.00
21193;DHT22;10754;51.106;7.164;2023-03-01T08:58:49;6.00;1.00
21193;DHT22;10754;51.106;7.164;2023-03-01T09:01:17;6.00;1.00
21193;DHT22;10754;51.106;7.164;2023-03-01T09:03:44;6.10;1.00
21193;DHT22;10754;51.106;7.164;2023-03-01T09:06:10;6.20;1.00
21193;DHT22;10754;51.106;7.164;2023-03-01T09:08:37;6.20;1.00
21193;DHT22;10754;51.106;7.164;2023-03-01T09:11:09;6.20;1.00
21193;DHT22;10754;51.106;7.164;2023-03-01T09:13:35;6.30;1.00
21193;DHT22;10754;51.106;7.164;2023-03-01T09:16:02;6.40;1.00
21193;DHT22;10754;51.106;7.164;2023-03-01T09:18:28;6.70;1.00
21193;DHT22;10754;51.106;7.164;2023-03-01T09:21:03;6.60;1.00
21193;DHT22;10754;51.106;7.164;2023-03-01T09:23:33;6.60;1.00
21193;DHT22;10754;51.106;7.164;2023-03-01T09:25:59;6.70;1.00
21193;DHT22;10754;51.106;7.164;2023-03-01T09:28:25;6.90;1.00
21193;DHT22;10754;51.106;7.164;2023-03-01T09:30:50;6.70;1.00
21193;DHT22;10754;51.106;7.164;2023-03-01T09:33:16;6.80;1.00
21193;DHT22;10754;51.106;7.164;2023-03-01T09:35:41;6.90;1.00
21193;DHT22;10754;51.106;7.164;2023-03-01T09:38:11;7.00;1.00
21193;DHT22;10754;51.106;7.164;2023-03-01T09:40:42;7.20;1.00
21193;DHT22;10754;51.106;7.164;2023-03-01T09:43:37;7.50;1.00
21193;DHT22;10754;51.106;7.164;2023-03-01T09:46:09;7.70;1.00
21193;DHT22;10754;51.106;7.164;2023-03-01T09:49:04;7.90;1.00
21193;DHT22;10754;51.106;7.164;2023-03-01T09:51:36;8.10;99.90
21193;DHT22;10754;51.106;7.164;2023-03-01T09:54:05;8.10;99.90
21193;DHT22;10754;51.106;7.164;2023-03-01T09:56:34;8.10;99.90
21193;DHT22;10754;51.106;7.164;2023-03-01T09:59:20;8.10;99.90
21193;DHT22;10754;51.106;7.164;2023-03-01T10:04:47;8.00;1.00
21193;DHT22;10754;51.106;7.164;2023-03-01T10:07:39;8.30;99.90
21193;DHT22;10754;51.106;7.164;2023-03-01T10:10:10;8.50;99.90
21193;DHT22;10754;51.106;7.164;2023-03-01T10:12:42;8.60;99.90
21193;DHT22;10754;51.106;7.164;2023-03-01T10:15:18;9.00;99.90
21193;DHT22;10754;51.106;7.164;2023-03-01T10:17:58;9.10;99.90
21193;DHT22;10754;51.106;7.164;2023-03-01T10:21:00;9.10;99.90
21193;DHT22;10754;51.106;7.164;2023-03-01T10:23:29;9.40;99.90
21193;DHT22;10754;51.106;7.164;2023-03-01T10:34:19;10.00;99.90
21193;DHT22;10754;51.106;7.164;2023-03-01T10:36:50;10.20;99.90
21193;DHT22;10754;51.106;7.164;2023-03-01T10:39:24;10.30;99.90
21193;DHT22;10754;51.106;7.164;2023-03-01T10:41:54;10.40;99.90
21193;DHT22;10754;51.106;7.164;2023-03-01T10:44:40;10.60;99.90
21193;DHT22;10754;51.106;7.164;2023-03-01T10:47:18;10.90;99.90
21193;DHT22;10754;51.106;7.164;2023-03-01T10:50:04;11.10;99.90
21193;DHT22;10754;51.106;7.164;2023-03-01T10:52:34;11.30;99.90
21193;DHT22;10754;51.106;7.164;2023-03-01T10:57:46;11.90;99.90
21193;DHT22;10754;51.106;7.164;2023-03-01T11:00:45;12.30;99.90
21193;DHT22;10754;51.106;7.164;2023-03-01T11:03:13;12.60;99.90
21193;DHT22;10754;51.106;7.164;2023-03-01T11:05:57;12.90;99.90
21193;DHT22;10754;51.106;7.164;2023-03-01T11:11:09;13.60;99.90
21193;DHT22;10754;51.106;7.164;2023-03-01T11:13:55;13.80;99.90
21193;DHT22;10754;51.106;7.164;2023-03-01T11:16:40;14.40;99.90
21193;DHT22;10754;51.106;7.164;2023-03-01T11:21:59;16.40;99.90
21193;DHT22;10754;51.106;7.164;2023-03-01T11:24:32;17.00;99.90
21193;DHT22;10754;51.106;7.164;2023-03-01T11:27:03;16.60;99.90
21193;DHT22;10754;51.106;7.164;2023-03-01T11:32:01;17.70;99.90
21193;DHT22;10754;51.106;7.164;2023-03-01T11:37:41;18.90;99.90
21193;DHT22;10754;51.106;7.164;2023-03-01T11:40:23;19.80;99.90
21193;DHT22;10754;51.106;7.164;2023-03-01T11:43:06;20.50;99.90
21193;DHT22;10754;51.106;7.164;2023-03-01T11:48:48;21.70;99.90
21193;DHT22;10754;51.106;7.164;2023-03-01T11:57:35;22.70;99.90
21193;DHT22;10754;51.106;7.164;2023-03-01T12:08:27;24.40;99.90
21193;DHT22;10754;51.106;7.164;2023-03-01T12:25:10;27.60;99.90
21193;DHT22;10754;51.106;7.164;2023-03-01T12:46:52;30.80;74.10
21193;DHT22;10754;51.106;7.164;2023-03-01T12:49:23;31.00;56.40
21193;DHT22;10754;51.106;7.164;2023-03-01T12:51:59;30.90;50.90
21193;DHT22;10754;51.106;7.164;2023-03-01T12:54:29;30.90;44.50
21193;DHT22;10754;51.106;7.164;2023-03-01T12:56:57;31.30;48.10
21193;DHT22;10754;51.106;7.164;2023-03-01T13:03:06;31.90;34.10
21193;DHT22;10754;51.106;7.164;2023-03-01T13:08:06;31.80;20.60
21193;DHT22;10754;51.106;7.164;2023-03-01T13:10:43;32.00;30.70
21193;DHT22;10754;51.106;7.164;2023-03-01T13:13:22;31.70;32.20
21193;DHT22;10754;51.106;7.164;2023-03-01T13:15:48;29.30;48.60
21193;DHT22;10754;51.106;7.164;2023-03-01T13:26:12;25.20;99.90
21193;DHT22;10754;51.106;7.164;2023-03-01T13:28:48;24.60;99.90
21193;DHT22;10754;51.106;7.164;2023-03-01T13:33:53;23.70;99.90
21193;DHT22;10754;51.106;7.164;2023-03-01T13:44:30;22.30;99.90
21193;DHT22;10754;51.106;7.164;2023-03-01T13:49:59;21.80;99.90
21193;DHT22;10754;51.106;7.164;2023-03-01T13:52:45;21.20;99.90
21193;DHT22;10754;51.106;7.164;2023-03-01T13:57:46;20.60;99.90
21193;DHT22;10754;51.106;7.164;2023-03-01T14:03:00;20.10;99.90
21193;DHT22;10754;51.106;7.164;2023-03-01T14:05:26;19.90;99.90
21193;DHT22;10754;51.106;7.164;2023-03-01T14:07:51;19.60;99.90
21193;DHT22;10754;51.106;7.164;2023-03-01T14:10:17;19.30;99.90
21193;DHT22;10754;51.106;7.164;2023-03-01T14:12:50;19.00;99.90
21193;DHT22;10754;51.106;7.164;2023-03-01T14:15:31;18.80;99.90
21193;DHT22;10754;51.106;7.164;2023-03-01T14:18:08;18.70;99.90
21193;DHT22;10754;51.106;7.164;2023-03-01T14:20:42;18.40;99.90
21193;DHT22;10754;51.106;7.164;2023-03-01T14:23:13;18.20;99.90
21193;DHT22;10754;51.106;7.164;2023-03-01T14:25:54;18.00;99.90
21193;DHT22;10754;51.106;7.164;2023-03-01T14:28:21;17.70;99.90
21193;DHT22;10754;51.106;7.164;2023-03-01T14:30:50;17.60;99.90
21193;DHT22;10754;51.106;7.164;2023-03-01T14:33:20;17.40;99.90
21193;DHT22;10754;51.106;7.164;2023-03-01T14:36:12;17.20;99.90
21193;DHT22;10754;51.106;7.164;2023-03-01T14:38:44;17.00;99.90
21193;DHT22;10754;51.106;7.164;2023-03-01T14:43:45;16.60;99.90
21193;DHT22;10754;51.106;7.164;2023-03-01T14:46:24;16.40;99.90
21193;DHT22;10754;51.106;7.164;2023-03-01T14:48:58;16.20;99.90
21193;DHT22;10754;51.106;7.164;2023-03-01T14:51:26;16.00;99.90
21193;DHT22;10754;51.106;7.164;2023-03-01T14:53:52;15.80;99.90
21193;DHT22;10754;51.106;7.164;2023-03-01T14:56:19;15.70;99.90
21193;DHT22;10754;51.106;7.164;2023-03-01T14:58:46;15.50;99.90
21193;DHT22;10754;51.106;7.164;2023-03-01T15:01:16;15.40;99.90
21193;DHT22;10754;51.106;7.164;2023-03-01T15:03:44;15.30;99.90
21193;DHT22;10754;51.106;7.164;2023-03-01T15:06:14;15.10;99.90
21193;DHT22;10754;51.106;7.164;2023-03-01T15:08:42;15.00;99.90
21193;DHT22;10754;51.106;7.164;2023-03-01T15:13:39;14.70;99.90
21193;DHT22;10754;51.106;7.164;2023-03-01T15:16:16;14.50;99.90
21193;DHT22;10754;51.106;7.164;2023-03-01T15:18:54;14.40;99.90
21193;DHT22;10754;51.106;7.164;2023-03-01T15:21:34;14.30;99.90
21193;DHT22;10754;51.106;7.164;2023-03-01T15:24:17;14.20;99.90
21193;DHT22;10754;51.106;7.164;2023-03-01T15:26:52;14.10;99.90
21193;DHT22;10754;51.106;7.164;2023-03-01T15:29:23;14.00;99.90
21193;DHT22;10754;51.106;7.164;2023-03-01T15:31:58;13.80;99.90
21193;DHT22;10754;51.106;7.164;2023-03-01T15:34:24;13.80;99.90
21193;DHT22;10754;51.106;7.164;2023-03-01T15:36:52;13.70;99.90
21193;DHT22;10754;51.106;7.164;2023-03-01T15:42:05;13.50;99.90
21193;DHT22;10754;51.106;7.164;2023-03-01T15:44:34;13.30;99.90
21193;DHT22;10754;51.106;7.164;2023-03-01T15:47:01;13.10;99.90
21193;DHT22;10754;51.106;7.164;2023-03-01T15:49:40;13.10;99.90
21193;DHT22;10754;51.106;7.164;2023-03-01T15:52:27;12.90;99.90
21193;DHT22;10754;51.106;7.164;2023-03-01T15:55:01;12.90;99.90
21193;DHT22;10754;51.106;7.164;2023-03-01T15:57:27;12.80;99.90
21193;DHT22;10754;51.106;7.164;2023-03-01T15:59:52;12.80;99.90
21193;DHT22;10754;51.106;7.164;2023-03-01T16:02:18;12.80;99.90
21193;DHT22;10754;51.106;7.164;2023-03-01T16:04:46;12.70;99.90
21193;DHT22;10754;51.106;7.164;2023-03-01T16:07:12;12.50;99.90
21193;DHT22;10754;51.106;7.164;2023-03-01T16:09:37;12.50;99.90
21193;DHT22;10754;51.106;7.164;2023-03-01T16:12:03;12.50;99.90
21193;DHT22;10754;51.106;7.164;2023-03-01T16:14:28;12.40;99.90
21193;DHT22;10754;51.106;7.164;2023-03-01T16:16:54;12.40;99.90
21193;DHT22;10754;51.106;7.164;2023-03-01T16:19:20;12.30;99.90
21193;DHT22;10754;51.106;7.164;2023-03-01T16:21:45;12.20;99.90
21193;DHT22;10754;51.106;7.164;2023-03-01T16:24:12;12.10;99.90
21193;DHT22;10754;51.106;7.164;2023-03-01T16:26:38;12.00;99.90
21193;DHT22;10754;51.106;7.164;2023-03-01T16:29:04;12.00;99.90
21193;DHT22;10754;51.106;7.164;2023-03-01T16:31:29;12.00;99.90
21193;DHT22;10754;51.106;7.164;2023-03-01T16:33:57;11.90;99.90
21193;DHT22;10754;51.106;7.164;2023-03-01T16:36:24;11.80;99.90
21193;DHT22;10754;51.106;7.164;2023-03-01T16:38:51;11.60;99.90
21193;DHT22;10754;51.106;7.164;2023-03-01T16:41:19;11.60;99.90
21193;DHT22;10754;51.106;7.164;2023-03-01T16:43:46;11.60;99.90
21193;DHT22;10754;51.106;7.164;2023-03-01T16:46:21;11.60;99.90
21193;DHT22;10754;51.106;7.164;2023-03-01T16:48:48;11.60;99.90
21193;DHT22;10754;51.106;7.164;2023-03-01T16:51:14;11.50;99.90
21193;DHT22;10754;51.106;7.164;2023-03-01T16:53:40;11.40;99.90
21193;DHT22;10754;51.106;7.164;2023-03-01T16:56:08;11.30;99.90
21193;DHT22;10754;51.106;7.164;2023-03-01T16:58:34;11.40;99.90
21193;DHT22;10754;51.106;7.164;2023-03-01T17:01:06;11.30;99.90
21193;DHT22;10754;51.106;7.164;2023-03-01T17:03:32;11.20;99.90
21193;DHT22;10754;51.106;7.164;2023-03-01T17:06:02;11.10;99.90
21193;DHT22;10754;51.106;7.164;2023-03-01T17:08:27;11.10;99.90
21193;DHT22;10754;51.106;7.164;2023-03-01T17:10:53;11.10;99.90
21193;DHT22;10754;51.106;7.164;2023-03-01T17:13:18;11.00;99.90
21193;DHT22;10754;51.106;7.164;2023-03-01T17:15:44;11.00;99.90
21193;DHT22;10754;51.106;7.164;2023-03-01T17:18:09;11.00;99.90
21193;DHT22;10754;51.106;7.164;2023-03-01T17:20:35;10.90;99.90
21193;DHT22;10754;51.106;7.164;2023-03-01T17:23:01;10.90;99.90
21193;DHT22;10754;51.106;7.164;2023-03-01T17:25:27;10.90;99.90
21193;DHT22;10754;51.106;7.164;2023-03-01T17:27:53;10.80;99.90
21193;DHT22;10754;51.106;7.164;2023-03-01T17:30:19;10.70;99.90
21193;DHT22;10754;51.106;7.164;2023-03-01T17:32:44;10.70;99.90
21193;DHT22;10754;51.106;7.164;2023-03-01T17:35:10;10.60;99.90
21193;DHT22;10754;51.106;7.164;2023-03-01T17:37:39;10.60;99.90
21193;DHT22;10754;51.106;7.164;2023-03-01T17:40:05;10.50;99.90
21193;DHT22;10754;51.106;7.164;2023-03-01T17:42:31;10.50;99.90
21193;DHT22;10754;51.106;7.164;2023-03-01T17:44:57;10.50;99.90
21193;DHT22;10754;51.106;7.164;2023-03-01T17:47:22;10.40;99.90
21193;DHT22;10754;51.106;7.164;2023-03-01T17:49:48;10.40;99.90
21193;DHT22;10754;51.106;7.164;2023-03-01T17:52:13;10.40;99.90
21193;DHT22;10754;51.106;7.164;2023-03-01T17:54:39;10.30;99.90
21193;DHT22;10754;51.106;7.164;2023-03-01T17:57:05;10.30;99.90
21193;DHT22;10754;51.106;7.164;2023-03-01T17:59:30;10.30;99.90
21193;DHT22;10754;51.106;7.164;2023-03-01T18:01:57;10.20;99.90
21193;DHT22;10754;51.106;7.164;2023-03-01T18:04:26;10.20;99.90
21193;DHT22;10754;51.106;7.164;2023-03-01T18:06:52;10.20;99.90
21193;DHT22;10754;51.106;7.164;2023-03-01T18:09:17;10.10;99.90
21193;DHT22;10754;51.106;7.164;2023-03-01T18:11:43;10.10;99.90